Time;durP1;ratioP1;P1;durP2;ratioP2;P2;SDS_P1;SDS_P2;PMS_P1;PMS_P2;Temp;Humidity;BMP_temperature;BMP_pressure;BME280_temperature;BME280_humidity;BME280_pressure;Samples;Min_cycle;Max_cycle;Signal;HPM_P1;HPM_P2
2022/08/27 00:01:07;;;;;;;33.73;27.57;;;21.30;99.90;;;;;;5072959;28;20446;-70
2022/08/27 00:03:56;;;;;;;35.13;28.60;;;21.10;99.90;;;;;;5070468;28;20446;-70
2022/08/27 00:06:41;;;;;;;31.53;26.47;;;21.10;99.90;;;;;;5068652;28;20446;-70
2022/08/27 00:09:27;;;;;;;30.30;26.00;;;21.10;99.90;;;;;;5068419;28;20515;-70
2022/08/27 00:12:13;;;;;;;30.07;26.80;;;21.10;99.90;;;;;;5070868;28;20459;-70
2022/08/27 00:14:59;;;;;;;32.10;27.10;;;21.10;99.90;;;;;;5070249;28;20535;-70
2022/08/27 00:17:46;;;;;;;30.03;25.60;;;21.10;99.90;;;;;;5068431;28;20506;-70
2022/08/27 00:20:34;;;;;;;25.13;22.63;;;21.20;99.90;;;;;;5071607;28;20454;-70
2022/08/27 00:23:19;;;;;;;28.57;22.50;;;21.20;99.90;;;;;;5072602;28;20446;-70
2022/08/27 00:26:07;;;;;;;29.43;22.57;;;21.20;99.90;;;;;;5074932;28;20529;-70
2022/08/27 00:28:52;;;;;;;25.80;23.10;;;21.20;99.90;;;;;;5067088;28;20489;-70
2022/08/27 00:31:38;;;;;;;24.13;21.70;;;21.20;99.90;;;;;;5072115;28;20466;-70
2022/08/27 00:34:24;;;;;;;24.53;22.10;;;21.20;99.90;;;;;;5071324;28;20443;-70
2022/08/27 00:37:10;;;;;;;30.63;21.63;;;21.20;99.90;;;;;;5066063;28;20446;-70
2022/08/27 00:39:56;;;;;;;23.87;21.07;;;21.30;99.90;;;;;;5070521;28;20482;-70
2022/08/27 00:42:44;;;;;;;30.07;22.03;;;21.30;99.90;;;;;;5070969;28;20573;-70
2022/08/27 00:45:36;;;;;;;25.37;21.07;;;21.40;99.90;;;;;;5069963;28;21140;-70
2022/08/27 00:48:27;;;;;;;27.00;22.07;;;21.40;99.90;;;;;;5068695;28;20592;-70
2022/08/27 00:51:13;;;;;;;24.40;21.90;;;21.30;99.90;;;;;;5074444;28;20453;-70
2022/08/27 00:54:01;;;;;;;28.47;23.47;;;21.20;99.90;;;;;;5069857;28;20867;-70
2022/08/27 00:56:47;;;;;;;23.20;20.70;;;21.00;99.90;;;;;;5067128;28;20854;-70
2022/08/27 00:59:33;;;;;;;23.37;20.87;;;20.90;99.90;;;;;;5067013;28;20474;-69
2022/08/27 01:02:19;;;;;;;26.27;21.23;;;21.00;99.90;;;;;;5068758;28;20457;-70
2022/08/27 01:05:09;;;;;;;24.97;22.20;;;21.10;99.90;;;;;;5070860;28;20431;-69
2022/08/27 01:07:58;;;;;;;27.30;22.37;;;21.20;99.90;;;;;;5066858;28;20548;-70
2022/08/27 01:10:46;;;;;;;22.17;20.00;;;21.20;99.90;;;;;;5070456;28;20466;-69
2022/08/27 01:13:33;;;;;;;26.00;19.53;;;21.20;99.90;;;;;;5072824;28;20443;-70
2022/08/27 01:16:23;;;;;;;26.83;19.63;;;21.30;99.90;;;;;;5070122;28;20523;-70
2022/08/27 01:19:17;;;;;;;20.70;18.60;;;21.20;99.90;;;;;;5069551;28;20470;-70
2022/08/27 01:22:09;;;;;;;24.70;21.00;;;21.10;99.90;;;;;;5071463;28;20827;-70
2022/08/27 01:24:58;;;;;;;27.20;20.50;;;20.90;99.90;;;;;;5070002;28;20573;-70
2022/08/27 01:27:45;;;;;;;25.87;20.60;;;21.00;99.90;;;;;;5065290;28;20478;-70
2022/08/27 01:30:32;;;;;;;25.93;19.73;;;21.00;99.90;;;;;;5075176;28;20588;-70
2022/08/27 01:33:20;;;;;;;23.87;20.07;;;20.90;99.90;;;;;;5073181;28;20444;-69
2022/08/27 01:36:07;;;;;;;24.30;19.40;;;20.90;99.90;;;;;;5076257;28;20434;-70
2022/08/27 01:38:53;;;;;;;24.30;18.70;;;20.90;99.90;;;;;;5069664;28;20813;-70
2022/08/27 01:41:40;;;;;;;27.80;20.20;;;20.80;99.90;;;;;;5071417;28;20433;-70
2022/08/27 01:44:26;;;;;;;21.80;19.50;;;20.70;99.90;;;;;;5069711;28;20990;-70
2022/08/27 01:47:12;;;;;;;24.47;18.80;;;20.70;99.90;;;;;;5070805;28;20450;-69
2022/08/27 01:49:58;;;;;;;23.47;18.27;;;20.80;99.90;;;;;;5068403;28;20979;-70
2022/08/27 01:52:45;;;;;;;22.27;19.67;;;20.60;99.90;;;;;;5068751;28;20451;-69
2022/08/27 01:55:31;;;;;;;26.70;18.83;;;20.60;99.90;;;;;;5072213;28;20448;-70
2022/08/27 01:58:20;;;;;;;25.10;18.03;;;20.60;99.90;;;;;;5064565;28;20471;-70
2022/08/27 02:01:09;;;;;;;23.00;19.67;;;20.60;99.90;;;;;;5073320;28;20969;-70
2022/08/27 02:03:55;;;;;;;20.27;18.17;;;20.60;99.90;;;;;;5078792;28;20967;-70
2022/08/27 02:06:40;;;;;;;25.20;18.43;;;20.60;99.90;;;;;;5062387;28;20451;-70
2022/08/27 02:09:26;;;;;;;20.50;18.10;;;20.70;99.90;;;;;;5066716;28;20482;-70
2022/08/27 02:12:12;;;;;;;25.50;19.90;;;20.70;99.90;;;;;;5070641;28;20457;-70
2022/08/27 02:14:59;;;;;;;28.70;18.97;;;20.60;99.90;;;;;;5069476;28;20967;-70
2022/08/27 02:17:45;;;;;;;22.60;18.13;;;20.60;99.90;;;;;;5064528;28;20947;-70
2022/08/27 02:20:31;;;;;;;25.30;19.40;;;20.60;99.90;;;;;;5066861;28;20448;-70
2022/08/27 02:23:17;;;;;;;20.70;18.53;;;20.70;99.90;;;;;;5068874;28;20428;-70
2022/08/27 02:26:03;;;;;;;19.87;17.70;;;20.80;99.90;;;;;;5054906;28;20454;-70
2022/08/27 02:28:49;;;;;;;21.80;18.10;;;20.80;99.90;;;;;;5064060;28;20483;-70
2022/08/27 02:31:36;;;;;;;24.40;20.33;;;20.70;99.90;;;;;;5069823;28;20483;-70
2022/08/27 02:34:22;;;;;;;21.60;19.47;;;20.60;99.90;;;;;;5069953;28;20451;-70
2022/08/27 02:37:08;;;;;;;28.47;20.10;;;20.60;99.90;;;;;;5067438;28;20446;-70
2022/08/27 02:39:54;;;;;;;24.70;19.17;;;20.50;99.90;;;;;;5071199;28;20474;-70
2022/08/27 02:42:40;;;;;;;25.70;19.53;;;20.40;99.90;;;;;;5069861;28;20489;-70
2022/08/27 02:45:25;;;;;;;25.60;19.60;;;20.40;99.90;;;;;;5064039;28;20717;-70
2022/08/27 02:48:13;;;;;;;22.37;20.17;;;20.40;99.90;;;;;;5067895;28;20470;-69
2022/08/27 02:50:58;;;;;;;25.80;20.73;;;20.40;99.90;;;;;;5069249;28;20443;-70
2022/08/27 02:53:44;;;;;;;23.13;20.83;;;20.40;99.90;;;;;;5065597;28;20445;-69
2022/08/27 02:56:29;;;;;;;24.93;20.20;;;20.50;99.90;;;;;;5066141;28;20450;-69
2022/08/27 02:59:15;;;;;;;26.33;22.23;;;20.40;99.90;;;;;;5063791;28;20819;-70
2022/08/27 03:02:01;;;;;;;25.83;22.57;;;20.40;99.90;;;;;;5067280;28;20446;-69
2022/08/27 03:04:48;;;;;;;27.13;22.40;;;20.30;99.90;;;;;;5067200;28;20971;-69
2022/08/27 03:07:34;;;;;;;25.33;21.13;;;20.30;99.90;;;;;;5067444;28;20453;-70
2022/08/27 03:10:21;;;;;;;29.37;20.77;;;20.40;99.90;;;;;;5066914;28;20448;-70
2022/08/27 03:13:06;;;;;;;34.13;24.60;;;20.50;99.90;;;;;;5074115;28;20581;-70
2022/08/27 03:15:52;;;;;;;23.77;21.47;;;20.40;99.90;;;;;;5063974;28;20446;-69
2022/08/27 03:18:37;;;;;;;27.77;23.00;;;20.40;99.90;;;;;;5068852;28;20462;-70
2022/08/27 03:21:25;;;;;;;26.43;23.50;;;20.40;99.90;;;;;;5069992;28;20490;-70
2022/08/27 03:24:11;;;;;;;31.57;24.80;;;20.40;99.90;;;;;;5066856;28;20520;-70
2022/08/27 03:26:58;;;;;;;27.90;24.63;;;20.30;99.90;;;;;;5067205;28;20758;-70
2022/08/27 03:29:43;;;;;;;26.50;23.27;;;20.30;99.90;;;;;;5075685;28;20469;-70
2022/08/27 03:32:29;;;;;;;27.90;23.43;;;20.30;99.90;;;;;;5073515;28;20438;-70
2022/08/27 03:35:16;;;;;;;31.37;23.97;;;20.50;99.90;;;;;;5071135;28;20544;-69
2022/08/27 03:38:03;;;;;;;28.33;23.43;;;20.50;99.90;;;;;;5071218;28;20466;-69
2022/08/27 03:40:50;;;;;;;27.00;24.07;;;20.50;99.90;;;;;;5073708;28;20450;-70
2022/08/27 03:43:35;;;;;;;27.30;24.50;;;20.60;99.90;;;;;;5070393;28;20548;-70
2022/08/27 03:46:21;;;;;;;29.40;22.70;;;20.60;99.90;;;;;;5071804;28;20967;-70
2022/08/27 03:49:07;;;;;;;30.40;25.17;;;20.70;99.90;;;;;;5073240;28;20995;-70
2022/08/27 03:51:53;;;;;;;28.13;24.67;;;20.80;99.90;;;;;;5073130;28;20491;-69
2022/08/27 03:54:41;;;;;;;29.93;26.93;;;20.80;99.90;;;;;;5067553;28;20462;-70
2022/08/27 03:57:26;;;;;;;26.27;23.37;;;20.90;99.90;;;;;;5075341;28;20956;-70
2022/08/27 04:00:13;;;;;;;27.77;25.00;;;20.90;99.90;;;;;;5073639;28;20452;-70
2022/08/27 04:02:59;;;;;;;29.73;26.63;;;20.70;99.90;;;;;;5070306;28;21081;-70
2022/08/27 04:05:44;;;;;;;29.03;25.63;;;20.60;99.90;;;;;;5065159;28;20446;-70
2022/08/27 04:08:30;;;;;;;29.57;26.67;;;20.60;99.90;;;;;;5074197;28;20469;-70
2022/08/27 04:11:17;;;;;;;27.73;24.97;;;20.60;99.90;;;;;;5067350;28;20992;-70
2022/08/27 04:14:04;;;;;;;36.73;25.60;;;20.60;99.90;;;;;;5066110;28;20455;-70
2022/08/27 04:16:49;;;;;;;29.17;25.50;;;20.60;99.90;;;;;;5077450;28;20458;-70
2022/08/27 04:19:35;;;;;;;33.20;26.47;;;20.70;99.90;;;;;;5070532;28;20454;-69
2022/08/27 04:22:22;;;;;;;30.03;23.97;;;20.70;99.90;;;;;;5069817;28;20421;-70
2022/08/27 04:25:08;;;;;;;28.67;25.40;;;20.60;99.90;;;;;;5065550;28;20524;-70
2022/08/27 04:27:55;;;;;;;28.50;25.60;;;20.50;99.90;;;;;;5076020;28;20802;-70
2022/08/27 04:30:43;;;;;;;29.37;24.93;;;20.60;99.90;;;;;;5073738;28;20797;-70
2022/08/27 04:33:30;;;;;;;30.20;25.57;;;20.50;99.90;;;;;;5071175;28;20456;-70
2022/08/27 04:36:16;;;;;;;26.67;24.00;;;20.50;99.90;;;;;;5071982;28;20859;-70
2022/08/27 04:39:02;;;;;;;25.87;23.17;;;20.40;99.90;;;;;;5066883;28;20441;-70
2022/08/27 04:41:49;;;;;;;26.97;24.00;;;20.50;99.90;;;;;;5075437;28;20442;-70
2022/08/27 04:44:36;;;;;;;26.10;23.30;;;20.50;99.90;;;;;;5068402;28;20447;-70
2022/08/27 04:47:22;;;;;;;29.03;23.50;;;20.60;99.90;;;;;;5074150;28;20454;-70
2022/08/27 04:50:08;;;;;;;28.20;23.30;;;20.60;99.90;;;;;;5071826;28;20470;-70
2022/08/27 04:52:54;;;;;;;27.00;23.80;;;20.50;99.90;;;;;;5071906;28;20594;-70
2022/08/27 04:55:43;;;;;;;31.90;24.77;;;20.50;99.90;;;;;;5064753;28;20481;-70
2022/08/27 04:58:29;;;;;;;27.90;24.93;;;20.50;99.90;;;;;;5071576;28;20441;-70
2022/08/27 05:01:19;;;;;;;25.07;22.47;;;20.50;99.90;;;;;;5077394;28;20808;-70
2022/08/27 05:04:05;;;;;;;30.13;23.97;;;20.50;99.90;;;;;;5068596;28;20466;-70
2022/08/27 05:06:50;;;;;;;27.03;24.33;;;20.50;99.90;;;;;;5069617;28;20916;-70
2022/08/27 05:09:36;;;;;;;27.10;24.07;;;20.50;99.90;;;;;;5087366;22;20501;-71
2022/08/27 05:12:21;;;;;;;29.03;26.27;;;20.60;99.90;;;;;;5065315;28;20451;-74
2022/08/27 05:15:08;;;;;;;27.57;24.67;;;20.70;99.90;;;;;;5061667;28;20457;-73
2022/08/27 05:17:59;;;;;;;28.50;24.77;;;20.70;99.90;;;;;;5067902;28;20450;-71
2022/08/27 05:20:47;;;;;;;27.57;24.77;;;20.70;99.90;;;;;;5050246;28;20459;-73
2022/08/27 05:23:34;;;;;;;27.10;24.27;;;20.70;99.90;;;;;;5047046;28;20590;-73
2022/08/27 05:26:20;;;;;;;26.43;23.30;;;20.60;99.90;;;;;;5045441;28;20440;-74
2022/08/27 05:29:06;;;;;;;26.13;22.63;;;20.60;99.90;;;;;;5049409;28;20474;-71
2022/08/27 05:31:51;;;;;;;28.33;23.73;;;20.70;99.90;;;;;;5048950;28;20545;-71
2022/08/27 05:34:38;;;;;;;29.17;26.20;;;20.70;99.90;;;;;;5044146;28;20439;-71
2022/08/27 05:37:25;;;;;;;33.30;25.00;;;20.70;99.90;;;;;;5048893;28;20425;-71
2022/08/27 05:40:11;;;;;;;26.00;22.73;;;20.60;99.90;;;;;;5049435;28;20831;-71
2022/08/27 05:42:57;;;;;;;30.47;24.30;;;20.60;99.90;;;;;;5048333;28;20985;-71
2022/08/27 05:45:44;;;;;;;27.23;24.57;;;20.60;99.90;;;;;;5048674;28;20454;-71
2022/08/27 05:48:30;;;;;;;35.53;25.00;;;20.60;99.90;;;;;;5048340;28;21215;-71
2022/08/27 05:51:19;;;;;;;26.60;23.07;;;20.70;99.90;;;;;;5048602;28;20449;-71
2022/08/27 05:54:07;;;;;;;30.70;23.43;;;20.70;99.90;;;;;;5045902;28;20456;-71
2022/08/27 05:56:52;;;;;;;30.50;23.70;;;20.90;99.90;;;;;;5048605;28;20570;-72
2022/08/27 06:02:41;;;;;;;26.17;23.40;;;21.10;99.90;;;;;;5047651;28;20539;-71
2022/08/27 06:05:26;;;;;;;27.97;21.20;;;21.10;99.90;;;;;;5047422;28;20455;-71
2022/08/27 06:08:13;;;;;;;23.07;20.57;;;21.20;99.90;;;;;;5042973;28;20397;-72
2022/08/27 06:11:00;;;;;;;28.20;21.80;;;21.20;99.90;;;;;;5046885;28;21177;-71
2022/08/27 06:13:47;;;;;;;30.27;22.90;;;21.10;99.90;;;;;;5045721;28;20463;-73
2022/08/27 06:16:33;;;;;;;27.20;22.03;;;21.20;99.90;;;;;;5049263;28;20621;-71
2022/08/27 06:19:18;;;;;;;24.70;22.10;;;21.20;99.90;;;;;;5044491;28;20842;-73
2022/08/27 06:22:06;;;;;;;22.10;19.17;;;21.10;99.90;;;;;;5045258;28;20561;-73
2022/08/27 06:24:53;;;;;;;23.10;20.60;;;21.20;99.90;;;;;;5040960;28;20846;-73
2022/08/27 06:27:39;;;;;;;28.33;20.27;;;21.20;99.90;;;;;;5046475;28;20447;-73
2022/08/27 06:30:25;;;;;;;24.30;20.20;;;21.20;99.90;;;;;;5049095;28;20478;-73
2022/08/27 06:33:10;;;;;;;25.20;21.87;;;21.20;99.90;;;;;;5044837;28;20594;-73
2022/08/27 06:35:58;;;;;;;30.50;22.20;;;21.20;99.90;;;;;;5046699;28;20451;-73
2022/08/27 06:38:44;;;;;;;25.10;20.93;;;21.20;99.90;;;;;;5049124;28;20467;-73
2022/08/27 06:41:32;;;;;;;32.17;22.77;;;21.20;99.90;;;;;;5039635;28;20426;-73
2022/08/27 06:44:18;;;;;;;25.13;21.73;;;21.30;99.90;;;;;;5045302;28;20455;-72
2022/08/27 06:47:04;;;;;;;24.13;21.47;;;21.30;99.90;;;;;;5048072;28;20433;-73
2022/08/27 06:49:50;;;;;;;26.00;23.20;;;21.30;99.90;;;;;;5048995;28;20589;-73
2022/08/27 06:52:35;;;;;;;23.97;20.03;;;21.40;99.90;;;;;;5045071;28;20449;-71
2022/08/27 06:55:21;;;;;;;31.53;22.50;;;21.40;99.90;;;;;;5044592;28;20418;-73
2022/08/27 06:58:08;;;;;;;28.70;21.57;;;21.50;99.90;;;;;;5047202;28;20466;-73
2022/08/27 07:00:54;;;;;;;30.30;23.00;;;21.50;99.90;;;;;;5045124;28;20436;-73
2022/08/27 07:03:40;;;;;;;22.97;19.87;;;21.50;99.90;;;;;;5043788;28;20442;-73
2022/08/27 07:06:27;;;;;;;24.53;22.03;;;21.50;99.90;;;;;;5044745;28;21059;-73
2022/08/27 07:09:13;;;;;;;21.70;19.00;;;21.50;99.90;;;;;;5047367;28;20553;-73
2022/08/27 07:11:59;;;;;;;18.43;16.23;;;21.60;99.90;;;;;;5045752;28;20633;-73
2022/08/27 07:14:46;;;;;;;23.03;17.40;;;21.40;99.90;;;;;;5044460;28;20533;-73
2022/08/27 07:17:32;;;;;;;25.23;16.90;;;21.40;99.90;;;;;;5049905;28;20824;-73
2022/08/27 07:20:19;;;;;;;19.83;16.47;;;21.40;99.90;;;;;;5044469;28;20525;-73
2022/08/27 07:23:05;;;;;;;23.70;15.17;;;21.40;99.90;;;;;;5041346;28;20586;-73
2022/08/27 07:25:51;;;;;;;17.43;13.37;;;21.40;99.90;;;;;;5040719;28;21039;-73
2022/08/27 07:28:37;;;;;;;17.10;13.80;;;21.40;99.90;;;;;;5047227;28;20454;-73
2022/08/27 07:31:24;;;;;;;17.83;13.23;;;21.40;99.90;;;;;;5046656;28;20455;-73
2022/08/27 07:34:11;;;;;;;24.60;13.00;;;21.40;99.90;;;;;;5039259;28;20452;-73
2022/08/27 07:36:56;;;;;;;16.90;13.73;;;21.40;99.90;;;;;;5045861;28;20455;-73
2022/08/27 07:39:42;;;;;;;16.00;12.97;;;21.30;99.90;;;;;;5049598;28;20475;-73
2022/08/27 07:45:32;;;;;;;23.60;16.00;;;21.30;99.90;;;;;;5041961;28;20490;-72
2022/08/27 07:48:19;;;;;;;18.57;14.10;;;21.20;99.90;;;;;;5048195;28;20962;-72
2022/08/27 07:51:07;;;;;;;21.50;14.57;;;21.30;99.90;;;;;;5042960;28;20449;-72
2022/08/27 07:53:53;;;;;;;24.80;14.63;;;21.20;99.90;;;;;;5041873;28;20463;-72
2022/08/27 07:56:39;;;;;;;28.83;14.87;;;21.30;99.90;;;;;;5047704;28;20692;-72
2022/08/27 07:59:26;;;;;;;19.37;13.30;;;21.30;99.90;;;;;;5046812;28;20452;-72
2022/08/27 08:02:12;;;;;;;20.13;14.50;;;21.30;99.90;;;;;;5047218;28;21071;-72
2022/08/27 08:04:59;;;;;;;18.57;14.33;;;21.30;99.90;;;;;;5046122;28;20838;-72
2022/08/27 08:07:45;;;;;;;24.30;16.33;;;21.30;99.90;;;;;;5048619;28;21015;-72
2022/08/27 08:10:31;;;;;;;19.60;14.77;;;21.30;99.90;;;;;;5046654;28;21044;-72
2022/08/27 08:13:18;;;;;;;16.47;14.10;;;21.40;99.90;;;;;;5046713;28;20493;-72
2022/08/27 08:16:05;;;;;;;18.30;13.93;;;21.50;99.90;;;;;;5046128;28;20444;-72
2022/08/27 08:18:51;;;;;;;15.63;13.57;;;21.60;99.90;;;;;;5049903;28;20471;-72
2022/08/27 08:21:38;;;;;;;16.50;14.00;;;21.70;99.90;;;;;;5048606;28;20438;-72
2022/08/27 08:24:24;;;;;;;17.93;13.80;;;21.80;99.90;;;;;;5049920;28;20519;-72
2022/08/27 08:27:10;;;;;;;15.67;12.23;;;21.90;99.90;;;;;;5049391;28;20454;-72
2022/08/27 08:29:55;;;;;;;18.57;13.97;;;21.90;99.90;;;;;;5049804;28;20490;-72
2022/08/27 08:32:42;;;;;;;17.53;12.40;;;22.00;99.90;;;;;;5048907;28;20779;-72
2022/08/27 08:35:27;;;;;;;21.40;12.40;;;22.10;99.90;;;;;;5049458;28;20481;-72
2022/08/27 08:38:15;;;;;;;14.73;12.60;;;22.10;99.90;;;;;;5049861;28;20470;-72
2022/08/27 08:41:01;;;;;;;18.50;12.00;;;22.20;99.90;;;;;;5051875;28;20458;-72
2022/08/27 08:43:50;;;;;;;18.17;12.87;;;22.20;99.90;;;;;;5046577;28;20463;-72
2022/08/27 08:46:40;;;;;;;22.30;13.37;;;22.20;99.90;;;;;;5049851;28;20518;-71
2022/08/27 08:49:35;;;;;;;18.80;11.57;;;22.30;99.90;;;;;;5050303;28;20467;-72
2022/08/27 08:52:32;;;;;;;21.20;12.03;;;22.40;99.90;;;;;;5044808;28;20452;-72
2022/08/27 08:55:37;;;;;;;19.77;11.17;;;22.40;99.90;;;;;;5048478;28;20459;-72
2022/08/27 08:58:33;;;;;;;14.17;9.83;;;22.40;99.90;;;;;;5049411;28;20561;-72
2022/08/27 09:01:21;;;;;;;16.10;10.70;;;22.40;99.90;;;;;;5048306;28;20929;-72
2022/08/27 09:04:11;;;;;;;15.90;10.80;;;22.50;99.90;;;;;;5046953;28;20810;-72
2022/08/27 09:07:02;;;;;;;14.60;10.73;;;22.50;99.90;;;;;;5050565;28;20917;-72
2022/08/27 09:09:54;;;;;;;18.63;10.63;;;22.60;99.90;;;;;;5048987;28;20851;-72
2022/08/27 09:12:41;;;;;;;14.73;11.00;;;22.70;99.90;;;;;;5047068;28;20480;-72
2022/08/27 09:15:31;;;;;;;16.13;10.30;;;22.70;99.90;;;;;;5046149;28;21189;-72
2022/08/27 09:18:17;;;;;;;21.23;11.10;;;22.80;99.90;;;;;;5049760;28;20495;-72
2022/08/27 09:21:11;;;;;;;14.30;10.37;;;22.80;99.90;;;;;;5048019;28;20490;-72
2022/08/27 09:24:05;;;;;;;13.40;9.80;;;22.80;99.90;;;;;;5048662;28;20452;-72
2022/08/27 09:26:51;;;;;;;15.83;11.83;;;22.80;99.90;;;;;;5051046;28;20442;-72
2022/08/27 09:29:48;;;;;;;15.70;10.73;;;22.70;99.90;;;;;;5047773;28;20467;-72
2022/08/27 09:32:34;;;;;;;19.90;11.50;;;22.70;99.90;;;;;;5043978;28;20514;-72
2022/08/27 09:35:21;;;;;;;15.03;10.80;;;22.80;99.90;;;;;;5048571;28;20816;-72
2022/08/27 09:38:07;;;;;;;18.63;11.17;;;22.80;99.90;;;;;;5046012;28;20432;-72
2022/08/27 09:40:57;;;;;;;14.53;11.53;;;22.90;99.90;;;;;;5047553;28;20460;-72
2022/08/27 09:43:43;;;;;;;16.87;10.97;;;22.90;99.90;;;;;;5048247;28;20440;-72
2022/08/27 09:46:31;;;;;;;17.03;10.90;;;22.90;99.90;;;;;;5046495;28;20432;-72
2022/08/27 09:49:17;;;;;;;15.53;11.10;;;22.90;99.90;;;;;;5047856;28;20459;-72
2022/08/27 09:52:03;;;;;;;11.63;9.90;;;22.90;99.90;;;;;;5045814;28;20480;-72
2022/08/27 09:54:54;;;;;;;15.77;10.80;;;23.00;99.90;;;;;;5047132;28;20925;-72
2022/08/27 09:57:42;;;;;;;16.53;11.00;;;23.00;99.90;;;;;;5049860;28;20482;-72
2022/08/27 10:00:35;;;;;;;19.13;11.03;;;23.00;99.90;;;;;;5044935;28;20439;-72
2022/08/27 10:03:22;;;;;;;16.37;11.50;;;23.10;99.90;;;;;;5045867;28;20906;-72
2022/08/27 10:06:09;;;;;;;15.27;11.87;;;23.00;99.90;;;;;;5046448;28;20424;-71
2022/08/27 10:08:58;;;;;;;13.97;10.77;;;23.10;99.90;;;;;;5045933;28;20541;-72
2022/08/27 10:12:04;;;;;;;15.60;10.97;;;23.20;99.90;;;;;;5036915;28;20567;-72
2022/08/27 10:14:54;;;;;;;16.73;11.20;;;23.30;99.90;;;;;;5047469;28;20459;-72
2022/08/27 10:17:50;;;;;;;16.30;11.10;;;23.30;99.90;;;;;;5048109;28;21713;-72
2022/08/27 10:20:43;;;;;;;10.10;8.90;;;23.30;99.90;;;;;;5047803;28;20431;-72
2022/08/27 10:23:35;;;;;;;12.03;10.03;;;23.40;99.90;;;;;;5046199;28;20505;-72
2022/08/27 10:26:27;;;;;;;19.63;10.60;;;23.40;99.90;;;;;;5047594;28;20439;-72
2022/08/27 10:29:21;;;;;;;13.93;10.47;;;23.40;99.90;;;;;;5047930;28;20580;-72
2022/08/27 10:32:17;;;;;;;14.33;9.97;;;23.40;99.90;;;;;;5044126;28;20514;-72
2022/08/27 10:35:12;;;;;;;12.80;8.67;;;23.40;99.90;;;;;;5045230;28;20447;-72
2022/08/27 10:38:10;;;;;;;17.30;9.90;;;23.30;99.90;;;;;;5048838;28;21293;-72
2022/08/27 10:41:01;;;;;;;14.43;10.80;;;23.30;99.90;;;;;;5043841;28;20455;-72
2022/08/27 10:44:23;;;;;;;11.03;9.87;;;23.40;99.90;;;;;;5045568;28;20673;-72
2022/08/27 10:47:26;;;;;;;12.00;8.87;;;23.40;99.90;;;;;;5047139;28;20451;-72
2022/08/27 10:50:24;;;;;;;21.97;9.53;;;23.40;99.90;;;;;;5046561;28;20669;-72
2022/08/27 10:53:22;;;;;;;12.43;8.37;;;23.50;99.90;;;;;;5049786;28;20550;-72
2022/08/27 10:56:14;;;;;;;15.17;9.60;;;23.60;99.90;;;;;;5047747;28;20455;-72
2022/08/27 10:59:16;;;;;;;14.83;9.03;;;23.70;99.90;;;;;;5044086;28;20484;-72
2022/08/27 11:02:12;;;;;;;12.00;9.47;;;23.80;99.90;;;;;;5041750;28;20463;-72
2022/08/27 11:05:02;;;;;;;9.63;8.37;;;23.90;99.90;;;;;;5046693;28;20431;-72
2022/08/27 11:07:51;;;;;;;13.47;8.37;;;24.00;99.90;;;;;;5046379;28;20559;-72
2022/08/27 11:10:42;;;;;;;12.57;8.27;;;24.00;99.90;;;;;;5074493;22;20490;-71
2022/08/27 11:13:33;;;;;;;11.10;7.13;;;24.00;99.90;;;;;;5064991;28;20422;-71
2022/08/27 11:16:23;;;;;;;12.90;6.80;;;24.00;99.90;;;;;;5063395;28;20597;-71
2022/08/27 11:19:17;;;;;;;11.73;7.63;;;24.00;99.90;;;;;;5069975;28;20463;-70
2022/08/27 11:22:10;;;;;;;12.60;6.73;;;24.10;99.90;;;;;;5064874;28;20552;-71
2022/08/27 11:25:02;;;;;;;8.60;7.10;;;24.10;99.90;;;;;;5068141;28;20446;-70
2022/08/27 11:27:52;;;;;;;9.43;7.17;;;24.00;99.90;;;;;;5063274;28;20488;-71
2022/08/27 11:30:45;;;;;;;8.47;7.07;;;24.00;99.90;;;;;;5055921;28;20473;-71
2022/08/27 11:33:37;;;;;;;11.13;7.80;;;24.00;99.90;;;;;;5065608;28;20466;-71
2022/08/27 11:36:50;;;;;;;9.07;6.90;;;24.00;99.90;;;;;;5064779;28;20458;-71
2022/08/27 11:39:55;;;;;;;12.70;7.30;;;24.10;99.90;;;;;;5062022;28;20441;-70
2022/08/27 11:42:44;;;;;;;7.90;7.10;;;24.00;99.90;;;;;;5062845;28;20443;-71
2022/08/27 11:45:37;;;;;;;14.53;7.80;;;24.10;99.90;;;;;;5064498;28;20497;-71
2022/08/27 11:48:25;;;;;;;10.77;7.80;;;24.10;99.90;;;;;;5065447;28;20514;-71
2022/08/27 11:51:14;;;;;;;10.13;6.80;;;24.20;99.90;;;;;;5066761;28;20470;-71
2022/08/27 11:54:01;;;;;;;9.87;7.33;;;24.20;99.90;;;;;;5068068;28;20901;-71
2022/08/27 11:56:47;;;;;;;10.00;7.70;;;24.20;99.90;;;;;;5066783;28;20461;-71
2022/08/27 11:59:34;;;;;;;12.57;6.97;;;24.10;99.90;;;;;;5060099;28;20481;-71
2022/08/27 12:02:26;;;;;;;9.80;7.30;;;24.20;99.90;;;;;;5068280;28;20446;-71
2022/08/27 12:05:23;;;;;;;7.70;6.80;;;24.30;99.90;;;;;;5068561;28;20428;-71
2022/08/27 12:08:26;;;;;;;12.80;7.70;;;24.40;99.90;;;;;;5068758;28;21082;-71
2022/08/27 12:11:30;;;;;;;9.40;6.90;;;24.50;99.90;;;;;;5061555;28;20563;-71
2022/08/27 12:14:39;;;;;;;9.57;6.90;;;24.60;99.90;;;;;;5065474;28;20457;-70
2022/08/27 12:17:34;;;;;;;9.10;7.33;;;24.60;99.90;;;;;;5068446;28;20845;-71
2022/08/27 12:20:27;;;;;;;11.00;8.00;;;24.80;99.90;;;;;;5064323;28;20507;-71
2022/08/27 12:23:42;;;;;;;11.27;7.10;;;24.90;99.70;;;;;;5068750;28;20447;-71
2022/08/27 12:26:32;;;;;;;10.97;8.17;;;25.00;99.90;;;;;;5066951;28;20447;-71
2022/08/27 12:29:23;;;;;;;8.60;6.83;;;25.00;99.90;;;;;;5064088;28;20465;-71
2022/08/27 12:32:24;;;;;;;9.20;7.37;;;25.00;99.20;;;;;;5065371;28;20477;-71
2022/08/27 12:35:16;;;;;;;11.67;7.40;;;24.90;99.60;;;;;;5067028;28;20796;-71
2022/08/27 12:38:11;;;;;;;9.30;6.83;;;24.90;99.90;;;;;;5066697;28;21084;-71
2022/08/27 12:41:02;;;;;;;10.43;8.13;;;24.80;99.90;;;;;;5063092;28;20593;-71
2022/08/27 12:43:48;;;;;;;7.90;6.90;;;24.80;99.40;;;;;;5065107;28;20447;-71
2022/08/27 12:46:38;;;;;;;12.70;8.00;;;24.80;98.80;;;;;;5064440;28;20532;-71
2022/08/27 12:49:27;;;;;;;8.63;7.73;;;24.80;96.90;;;;;;5060759;28;20478;-71
2022/08/27 12:52:35;;;;;;;10.63;8.37;;;24.80;98.50;;;;;;5065338;28;20594;-71
2022/08/27 12:55:32;;;;;;;9.60;7.70;;;24.80;98.10;;;;;;5067046;28;20454;-71
2022/08/27 12:58:28;;;;;;;8.57;6.90;;;24.70;97.60;;;;;;5062639;28;20457;-71
2022/08/27 13:01:45;;;;;;;11.60;8.67;;;24.70;98.60;;;;;;5066379;28;20986;-71
2022/08/27 13:04:32;;;;;;;15.93;8.30;;;24.60;97.70;;;;;;5063754;28;20770;-71
2022/08/27 13:07:28;;;;;;;11.40;7.50;;;24.50;98.00;;;;;;5065654;28;20458;-72
2022/08/27 13:10:16;;;;;;;9.13;7.83;;;24.30;97.70;;;;;;5061989;28;20471;-72
2022/08/27 13:13:09;;;;;;;13.43;8.13;;;24.20;99.20;;;;;;5064878;28;20500;-72
2022/08/27 13:15:57;;;;;;;12.13;7.30;;;24.10;99.30;;;;;;5064576;28;20972;-72
2022/08/27 13:18:47;;;;;;;12.30;7.43;;;24.20;99.10;;;;;;5059744;28;20828;-72
2022/08/27 13:21:33;;;;;;;9.47;8.00;;;24.20;98.20;;;;;;5069603;28;20486;-71
2022/08/27 13:24:27;;;;;;;13.80;9.10;;;24.20;99.70;;;;;;5062920;28;20962;-71
2022/08/27 13:27:13;;;;;;;9.10;7.90;;;24.20;99.90;;;;;;5064204;28;20960;-71
2022/08/27 13:30:01;;;;;;;11.10;7.50;;;24.20;98.70;;;;;;5061264;28;20624;-71
2022/08/27 13:32:48;;;;;;;7.93;7.13;;;24.30;99.50;;;;;;5065746;28;20536;-71
2022/08/27 13:35:36;;;;;;;8.57;7.10;;;24.30;99.90;;;;;;5057110;28;21142;-72
2022/08/27 13:38:22;;;;;;;10.50;8.30;;;24.30;99.50;;;;;;5062012;28;21020;-72
2022/08/27 13:41:18;;;;;;;10.33;7.63;;;24.30;99.00;;;;;;5062223;28;20747;-71
2022/08/27 13:44:11;;;;;;;17.07;8.47;;;24.30;99.00;;;;;;5063448;28;20833;-71
2022/08/27 13:47:01;;;;;;;9.87;8.10;;;24.30;99.70;;;;;;5063429;28;20439;-72
2022/08/27 13:49:47;;;;;;;9.27;7.13;;;24.50;99.60;;;;;;5062994;28;20823;-71
2022/08/27 13:54:11;;;;;;;11.10;7.03;;;24.50;98.40;;;;;;5063700;28;20625;-72
2022/08/27 13:55:47;;;;;;;8.80;6.87;;;24.60;98.90;;;;;;5060613;28;20797;-71
2022/08/27 13:58:35;;;;;;;9.23;7.10;;;24.60;96.90;;;;;;5057626;28;20493;-72
2022/08/27 14:01:27;;;;;;;9.93;6.87;;;24.60;96.90;;;;;;5064274;28;20898;-71
2022/08/27 14:04:23;;;;;;;9.47;7.80;;;24.60;96.60;;;;;;5060859;28;20447;-71
2022/08/27 14:07:12;;;;;;;13.67;7.20;;;24.70;96.70;;;;;;5063994;28;20439;-71
2022/08/27 14:10:02;;;;;;;10.20;7.50;;;24.60;95.50;;;;;;5060798;28;20854;-71
2022/08/27 14:12:56;;;;;;;7.67;6.77;;;24.70;96.80;;;;;;5055139;28;20479;-71
2022/08/27 14:15:45;;;;;;;9.13;6.73;;;24.70;95.80;;;;;;5060295;28;20800;-72
2022/08/27 14:18:33;;;;;;;8.50;7.47;;;24.80;96.40;;;;;;5060179;28;20438;-72
2022/08/27 14:21:18;;;;;;;7.50;5.90;;;24.90;95.50;;;;;;5060556;28;20859;-71
2022/08/27 14:24:05;;;;;;;7.80;6.40;;;25.00;94.00;;;;;;5061784;28;20827;-71
2022/08/27 14:26:51;;;;;;;8.33;6.80;;;25.10;93.40;;;;;;5062367;28;20951;-71